Portada
METAR-TAF:

METAR-TAF

Aeroports :

Puerto Princesa, Filipines

latitud: 09-44-32N, longitud: 118-45-31E, altitud: 22 m

Observació

L'informe es va fer fa 1 hora i 56 minuts, a les 18:00 UTC
Vent 4 kt del Nord/Nord-Oest
Temperatura 27°C
Humitat 89%
Pressió 1007 hPa
Visibilitat 10 km o més
Escasses núvols a una alçada de 1900 ft
Cel ennuvolat a una alçada de 8000 ft
pluja

METAR: RPVP 301800Z 33004KT 9999 -RA FEW019 BKN080 27/25 Q1007 RMK A2974

Hora: 03:56 (19:56 UTC)

Pronòstic

L'informe es va fer fa 2 hores i 56 minuts, a les 17:00 UTC
Pronòstic vàlid del 30 a les 18 UTC al 01 a les 18 UTC
Vent 6 kt del Sud
Visibilitat 10 km o més
Escasses núvols a una alçada de 1900 ft
Núvols disperses a una alçada de 25000 ft
Temporalment
l' 30 a les 18 UTC al 30 a les 24 UTC
Vent 4 kt del Oest
Escasses núvols a una alçada de 1700 ft, Cumulonimbus.
Cel ennuvolat a una alçada de 8000 ft
xàfecs de pluja

TAF: RPVP 301700Z 3018/0118 18006KT 9999 FEW019 SCT250 TEMPO 3018/3024 27004KT -SHRA FEW017CB BKN080

Observacions i pronòstics meteorològics de més de 4000 aeroports (METAR i TAF).

Les estacions disponibles són els punts grocs i vermells al mapa.

Posi el ratolí al punt desitjat per veure el nom de l'estació.

Feu clic per veure les observacions i els pronòstics meteorològics.

Per canviar el mapa: feu clic els botons verds amb una creu de color negre per apropar; al botó verd amb un guió per allunyar la imatge; o en les fletxes verdes per a mapes adjacents.


METAR-TAF: